Nearby METAR Reports

 

KPDX - Portland, Oregon, USA
Distance from station: NE 9mi, 14km
Updated: Tue, 17-Sep-2019 10:53pm PDT
Overcast
Overcast
 Wind from SSE
Wind: SSE 6 mph , 9 km/h
Temperature: 61°F , 16°C
Dew Point: 55°F , 13°C
Humidity: 83%
Barometer: 29.77 inHg , 1008.1 hPa
Clouds: Overcast
Visibility: 10 miles , 16 km
Cloud details: Partly cloudy 1000 ft
Mostly cloudy 1500 ft
Overcast 6000 ft
2019/09/18 05:53 KPDX 180553Z 15005KT 10SM SCT010 BKN015 OVC060 16/13 A2977 RMK AO2 RAE12 SLP079 P0005 60072 T01560133 10178 20150 51002
KTMK - Tillamook, Oregon, USA
Distance from station: N 9mi, 14km
Updated: Tue, 17-Sep-2019 10:55pm PDT
Drizzle, Mostly cloudy
Drizzle, Mostly cloudy
 Wind from SE
Wind: SE 6 mph , 9 km/h
Temperature: 57°F , 14°C
Dew Point: 55°F , 13°C
Humidity: 94%
Barometer: 29.77 inHg , 1008.1 hPa
Summary: Drizzle
Clouds: Mostly cloudy
Visibility: 10 miles , 16 km
Cloud details: Partly cloudy 900 ft
Partly cloudy 1500 ft
Mostly cloudy 2600 ft
2019/09/18 05:55 KTMK 180555Z AUTO 14005KT 10SM DZ SCT009 SCT015 BKN026 14/13 A2977 RMK AO2 P0001
 
KSLE - Salem, Oregon, USA
Distance from station: NNW 14mi, 23km
Updated: Tue, 17-Sep-2019 10:56pm PDT
Overcast
Overcast
 Wind from S
Wind: S 13 mph , 20 km/h
Temperature: 57°F , 14°C
Dew Point: 55°F , 13°C
Humidity: 94%
Barometer: 29.77 inHg , 1008.1 hPa
Clouds: Overcast
Visibility: 10 miles , 16 km
Cloud details: Mostly cloudy 1000 ft
Mostly cloudy 3300 ft
Overcast 4500 ft
2019/09/18 05:56 KSLE 180556Z AUTO 17011KT 10SM BKN010 BKN033 OVC045 14/13 A2977 RMK AO2 SLP082 60014 T01440128 10161 20139 53003
KEUG - Eugene, Oregon, USA
Distance from station: ENE 12mi, 19km
Updated: Tue, 17-Sep-2019 10:54pm PDT
Mostly cloudy
Mostly cloudy
 Wind from S
Wind: S 8 mph , 13 km/h
Temperature: 57°F , 14°C
Dew Point: 55°F , 13°C
Humidity: 94%
Barometer: 29.81 inHg , 1009.5 hPa
Clouds: Mostly cloudy
Visibility: 10 miles , 16 km
Cloud details: Few Clouds 5500 ft
Partly cloudy 7500 ft
Mostly cloudy 9500 ft
2019/09/18 05:54 KEUG 180554Z 18007KT 10SM FEW055 SCT075 BKN095 14/13 A2981 RMK AO2 RAE06 SLP095 P0000 60060 T01440128 10156 20144 51006
 
KONP - Newport, Oregon, USA
Distance from station: NNW 31mi, 50km
Updated: Tue, 17-Sep-2019 10:55pm PDT
Overcast
Overcast
 Wind from S
Wind: S 12 mph , 19 km/h
Temperature: 59°F , 15°C
Dew Point: 57°F , 14°C
Humidity: 94%
Barometer: 29.79 inHg , 1008.8 hPa
Clouds: Overcast
Visibility: 7 miles , 11 km
Cloud details: Partly cloudy 1200 ft
Overcast 2100 ft
2019/09/18 05:55 KONP 180555Z AUTO 19010KT 7SM SCT012 OVC021 15/14 A2979 RMK AO2
K6S2 - Florence, Oregon, USA
Distance from station: NW 21mi, 34km
Updated: Tue, 17-Sep-2019 10:55pm PDT
Mostly cloudy
Mostly cloudy
 Wind from S
Wind: S 5 mph , 7 km/h
Temperature: 59°F , 15°C
Dew Point: 55°F , 13°C
Humidity: 88%
Barometer: 29.80 inHg , 1009.1 hPa
Clouds: Mostly cloudy
Visibility: 10 miles , 16 km
Cloud details: Partly cloudy 1400 ft
Partly cloudy 1900 ft
Mostly cloudy 4600 ft
2019/09/18 05:55 K6S2 180555Z AUTO 17004KT 10SM SCT014 SCT019 BKN046 15/13 A2980 RMK AO2 P0002
 
KDLS - The Dalles, Oregon, USA
Distance from station: NW 30mi, 49km
Updated: Tue, 17-Sep-2019 10:53pm PDT
Light rain, Overcast
Light rain, Overcast
 Wind from calm
Wind: Calm
Temperature: 57°F , 14°C
Dew Point: 55°F , 13°C
Humidity: 94%
Barometer: 29.77 inHg , 1008.1 hPa
Summary: Light rain
Clouds: Overcast
Visibility: 10 miles , 16 km
Cloud details: Few Clouds 6000 ft
Overcast 7500 ft
2019/09/18 05:53 KDLS 180553Z AUTO 00000KT 10SM -RA FEW060 OVC075 14/13 A2977 RMK AO2 RAB34 SLP083 P0001 60010 T01440133 10206 20144 53008
KRDM - Redmond, Oregon, USA
Distance from station: ESE 27mi, 43km
Updated: Tue, 17-Sep-2019 10:56pm PDT
Clear
Clear
 Wind from SSW
Wind: SSW 10 mph , 17 km/h
Temperature: 54°F , 12°C
Dew Point: 45°F , 7°C
Humidity: 72%
Barometer: 29.82 inHg , 1009.8 hPa
Clouds: Clear
Visibility: 10 miles , 16 km
2019/09/18 05:56 KRDM 180556Z AUTO 20009KT 10SM CLR 12/07 A2982 RMK AO2 SLP090 60001 T01170067 10139 20106 55005
 
KPDT - Pendleton, Oregon, USA
Distance from station: SSE 27mi, 44km
Updated: Tue, 17-Sep-2019 10:53pm PDT
Clear
Clear
 Wind from SW
Wind: SW 6 mph , 9 km/h
Temperature: 57°F , 14°C
Dew Point: 43°F , 6°C
Humidity: 59%
Barometer: 29.78 inHg , 1008.5 hPa
Clouds: Clear
Visibility: 10 miles , 16 km
2019/09/18 05:53 KPDT 180553Z AUTO 22005KT 10SM CLR 14/06 A2978 RMK AO2 WSHFT 0515 SLP073 60000 T01440061 10189 20144 56009
KGCD - John Day, Oregon, USA
Distance from station: WNW 31mi, 50km
Updated: Tue, 17-Sep-2019 10:55pm PDT
Rain, Overcast
Rain, Overcast
 Wind from E
Wind: E 7 mph , 11 km/h
Temperature: 48°F , 9°C
Wind Chill: 45°F , 7°C
Dew Point: 46°F , 8°C
Humidity: 94%
Barometer: 29.90 inHg , 1012.5 hPa
Summary: Rain
Clouds: Overcast
Visibility: 10 miles , 16 km
Cloud details: Partly cloudy 3100 ft
Partly cloudy 3800 ft
Overcast 6000 ft
2019/09/18 05:55 KGCD 180555Z AUTO 09006KT 10SM RA SCT031 SCT038 OVC060 09/08 A2990 RMK AO2 P0005 60037 T00930083 10096 20085
 
KAST - Astoria, Oregon, USA
Distance from station: N 28mi, 44km
Updated: Tue, 17-Sep-2019 10:55pm PDT
Nearby thunderstorm, Heavy rain, Mist, Overcast
Nearby thunderstorm, Heavy rain, Mist, Overcast
 Wind from calm
Wind: Calm
Temperature: 57°F , 14°C
Dew Point: 55°F , 13°C
Humidity: 94%
Barometer: 29.73 inHg , 1006.8 hPa
Summary: Nearby thunderstorm, Heavy rain, Mist
Clouds: Overcast
Visibility: 3 miles , 5 km
Cloud details: Mostly cloudy 2400 ft
Mostly cloudy 3900 ft
Overcast 5000 ft
2019/09/18 05:55 KAST 180555Z AUTO 00000KT 3SM VCTS +RA BR BKN024 BKN039 OVC050 14/13 A2973 RMK AO2 RAE20B46 SLP067 P0017 60029 T01390133 10156 20139 53009
KSEA - Seattle, Washington, USA
Distance from station: NNE 31mi, 51km
Updated: Tue, 17-Sep-2019 10:53pm PDT
Mostly cloudy
Mostly cloudy
 Wind from ESE
Wind: ESE 10 mph , 17 km/h
Temperature: 57°F , 14°C
Dew Point: 54°F , 12°C
Humidity: 88%
Barometer: 29.75 inHg , 1007.5 hPa
Clouds: Mostly cloudy
Visibility: 10 miles , 16 km
Cloud details: Partly cloudy 6000 ft
Mostly cloudy 18000 ft
2019/09/18 05:53 KSEA 180553Z 12009KT 10SM SCT060 BKN180 14/12 A2975 RMK AO2 SLP082 60024 T01390117 10167 20139 51004